Terminal Aerodrome Forecast
Issued by NWS Portland, ME

Home | Current Version | Previous Version | Text Only | Print | Product List | Glossary On
Versions: 1 2 3 4 5 6 7 8 9 10 11 12 13 14 15 16 17 18 19 20
000
FTUS41 KGYX 031304 AAA
TAFPWM
TAF AMD
KPWM 031304Z 0313/0412 15005KT P6SM SCT009 SCT025 BKN100
     FM031600 14005KT P6SM OVC050
     FM041000 06005KT P6SM BKN015 OVC025=

USA.gov is the U.S. government's official web portal to all federal, state and local government web resources and services.